Pinopolis, South Carolina
Current Conditions -  °F | °C
As of 6:35 AM on Sunday 23 Nov 2014 (Local Time) from KMKS Reporting Station
Moderate Rain Moderate Rain  
Wind Chill: 57°   Ceiling: NA
Heat Index: 57°   Visibility: 7mi
Dew Point: 57°   Wind: 5mph
Humidity: 100%   Direction: 50°NE
Pressure: 30.18"   Gusts: NA
Location:  33.23°N, 80.04°W
Report Text: KMKS 231135Z AUTO 05004KT 7SM RA 14/14 A3018 RMK AO2 P0004
Loading
Personal Weather Stations






























Interactive Weather Map New forecast layout! Learn more

10-Day Weather Forecast

Advertisements
Track Severe Weather on mobile